createdAt,value
2023-12-17T00:01:51.560Z,11.75
2023-12-17T00:07:13.503Z,8.55
2023-12-17T00:12:35.704Z,12.32
2023-12-17T00:17:57.711Z,10.32
2023-12-17T00:23:19.851Z,10.88
2023-12-17T00:28:41.864Z,9.60
2023-12-17T00:34:03.977Z,10.07
2023-12-17T00:39:26.034Z,10.43
2023-12-17T00:44:47.964Z,6.22
2023-12-17T00:50:09.843Z,13.65
2023-12-17T00:55:31.712Z,13.32
2023-12-17T01:00:55.879Z,11.63
2023-12-17T01:06:18.605Z,10.93
2023-12-17T01:11:40.634Z,14.23
2023-12-17T01:17:02.641Z,16.17
2023-12-17T01:22:24.773Z,11.75
2023-12-17T01:27:46.728Z,11.52
2023-12-17T01:33:08.814Z,9.48
2023-12-17T01:38:30.779Z,10.25
2023-12-17T01:43:52.706Z,10.45
2023-12-17T01:49:14.691Z,14.07
2023-12-17T01:54:36.712Z,11.88
2023-12-17T01:59:58.675Z,10.48
2023-12-17T02:05:20.640Z,10.93
2023-12-17T02:10:42.571Z,14.30
2023-12-17T02:16:04.417Z,11.20
2023-12-17T02:21:26.365Z,10.38
2023-12-17T02:26:48.315Z,10.35
2023-12-17T02:32:10.250Z,8.93
2023-12-17T02:37:32.485Z,12.48
2023-12-17T02:42:54.474Z,8.10
2023-12-17T02:48:16.633Z,12.23
2023-12-17T02:53:38.558Z,13.57
2023-12-17T02:59:00.701Z,15.32
2023-12-17T03:04:23.227Z,10.73
2023-12-17T03:09:45.224Z,12.48
2023-12-17T03:15:07.165Z,16.13
2023-12-17T03:20:29.128Z,12.10
2023-12-17T03:25:51.035Z,13.98
2023-12-17T03:31:12.958Z,13.63
2023-12-17T03:36:35.184Z,14.00
2023-12-17T03:41:57.096Z,14.50
2023-12-17T03:47:18.994Z,12.07
2023-12-17T03:52:40.970Z,16.27
2023-12-17T03:58:02.907Z,9.85
2023-12-17T04:03:24.987Z,12.05
2023-12-17T04:08:47.052Z,12.32
2023-12-17T04:14:09.396Z,13.57
2023-12-17T04:19:31.389Z,14.55
2023-12-17T04:24:53.348Z,12.75
2023-12-17T04:30:15.319Z,11.63
2023-12-17T04:35:37.276Z,11.35
2023-12-17T04:40:59.253Z,9.48
2023-12-17T04:46:23.368Z,10.68
2023-12-17T04:51:45.279Z,13.30
2023-12-17T04:57:07.213Z,13.35
2023-12-17T05:02:29.154Z,12.25
2023-12-17T05:07:51.062Z,11.85
2023-12-17T05:13:12.990Z,11.52
2023-12-17T05:18:34.981Z,11.20
2023-12-17T05:23:56.960Z,11.23
2023-12-17T05:29:18.879Z,9.65
2023-12-17T05:34:40.816Z,11.15
2023-12-17T05:40:02.755Z,9.77
2023-12-17T05:45:24.847Z,10.02
2023-12-17T05:50:46.804Z,9.93
2023-12-17T05:56:08.779Z,10.93
2023-12-17T06:01:30.775Z,9.77
2023-12-17T06:06:52.966Z,12.65
2023-12-17T06:12:14.966Z,14.15
2023-12-17T06:17:36.864Z,11.98
2023-12-17T06:22:58.823Z,9.27
2023-12-17T06:28:20.840Z,10.48
2023-12-17T06:33:42.990Z,12.93
2023-12-17T06:39:05.047Z,12.48
2023-12-17T06:44:27.640Z,10.93
2023-12-17T06:49:49.625Z,12.05
2023-12-17T06:55:11.665Z,12.60
2023-12-17T07:00:33.649Z,11.50
2023-12-17T07:05:55.705Z,14.00
2023-12-17T07:11:17.674Z,13.85
2023-12-17T07:16:39.991Z,10.85
2023-12-17T07:22:01.915Z,8.80
2023-12-17T07:27:24.078Z,11.48
2023-12-17T07:32:46.324Z,12.23
2023-12-17T07:38:08.341Z,11.68
2023-12-17T07:43:30.267Z,14.27
2023-12-17T07:48:52.344Z,11.15
2023-12-17T07:54:14.358Z,13.02
2023-12-17T07:59:36.278Z,12.70
2023-12-17T08:04:58.289Z,12.95
2023-12-17T08:10:20.234Z,13.23
2023-12-17T08:15:42.178Z,13.25
2023-12-17T08:21:04.504Z,10.90
2023-12-17T08:26:26.515Z,12.82
2023-12-17T08:31:48.576Z,12.23
2023-12-17T08:37:10.640Z,16.63
2023-12-17T08:42:32.596Z,14.10
2023-12-17T08:47:54.687Z,11.88
2023-12-17T08:53:16.713Z,13.48
2023-12-17T08:58:38.604Z,9.20
2023-12-17T09:04:00.658Z,10.88
2023-12-17T09:09:24.955Z,8.27
2023-12-17T09:14:46.915Z,13.18
2023-12-17T09:20:08.897Z,14.43
2023-12-17T09:25:30.900Z,13.27
2023-12-17T09:30:53.104Z,13.52
2023-12-17T09:36:15.261Z,16.52
2023-12-17T09:41:37.344Z,9.60
2023-12-17T09:46:59.264Z,15.68
2023-12-17T09:52:21.324Z,14.48
2023-12-17T09:57:43.481Z,17.42
2023-12-17T10:03:05.739Z,14.60
2023-12-17T10:08:28.194Z,12.63
2023-12-17T10:13:51.199Z,17.10
2023-12-17T10:19:13.304Z,13.68
2023-12-17T10:24:35.545Z,12.38
2023-12-17T10:29:57.672Z,9.50
2023-12-17T10:35:19.647Z,11.57
2023-12-17T10:40:42.379Z,8.80
2023-12-17T10:46:04.282Z,8.40
2023-12-17T10:51:26.185Z,8.70
2023-12-17T10:56:48.329Z,14.13
2023-12-17T11:02:10.474Z,7.78
2023-12-17T11:07:38.087Z,5.72
2023-12-17T11:13:00.966Z,5.45
2023-12-17T11:18:22.950Z,4.60
2023-12-17T11:23:44.910Z,6.22
2023-12-17T11:29:07.904Z,6.93
2023-12-17T11:34:31.751Z,7.75
2023-12-17T11:40:07.554Z,7.50
2023-12-17T11:45:33.353Z,8.05
2023-12-17T11:50:55.600Z,7.72
2023-12-17T11:56:17.762Z,7.65
2023-12-17T12:01:39.816Z,9.18
2023-12-17T12:07:01.757Z,8.48
2023-12-17T12:12:23.750Z,10.10
2023-12-17T12:17:45.981Z,11.82
2023-12-17T12:23:08.156Z,8.30
2023-12-17T12:28:30.025Z,11.93
2023-12-17T12:33:52.064Z,9.10
2023-12-17T12:39:14.060Z,14.35
2023-12-17T12:44:36.012Z,13.07
2023-12-17T12:49:57.995Z,11.15
2023-12-17T12:55:19.958Z,7.72
2023-12-17T13:00:41.869Z,10.23
2023-12-17T13:06:03.992Z,12.25
2023-12-17T13:11:26.250Z,8.77
2023-12-17T13:16:48.222Z,8.93
2023-12-17T13:22:10.164Z,13.43
2023-12-17T13:27:32.168Z,10.82
2023-12-17T13:32:54.413Z,13.57
2023-12-17T13:38:16.501Z,11.55
2023-12-17T13:43:39.322Z,11.23
2023-12-17T13:49:01.510Z,15.73
2023-12-17T13:54:23.565Z,20.75
2023-12-17T13:59:45.556Z,9.73
2023-12-17T14:05:11.813Z,12.25
2023-12-17T14:10:35.926Z,10.63
2023-12-17T14:15:57.765Z,8.85
2023-12-17T14:21:19.843Z,10.48
2023-12-17T14:26:41.766Z,9.40
2023-12-17T14:32:03.816Z,11.45
2023-12-17T14:37:25.845Z,10.20
2023-12-17T14:42:47.772Z,10.90
2023-12-17T14:48:09.897Z,14.88
2023-12-17T14:53:31.886Z,15.30
2023-12-17T14:58:53.799Z,12.50
2023-12-17T15:04:15.743Z,16.48
2023-12-17T15:09:37.880Z,14.13
2023-12-17T15:15:02.099Z,13.25
2023-12-17T15:20:24.001Z,17.05
2023-12-17T15:25:45.916Z,15.35
2023-12-17T15:31:07.866Z,16.77
2023-12-17T15:36:29.961Z,16.25
2023-12-17T15:41:52.016Z,23.20
2023-12-17T15:47:13.924Z,20.98
2023-12-17T15:52:35.753Z,25.10
2023-12-17T15:57:57.810Z,26.00
2023-12-17T16:03:19.812Z,40.00
2023-12-17T16:08:41.834Z,35.17
2023-12-17T16:14:03.794Z,36.15
2023-12-17T16:19:25.903Z,40.00
2023-12-17T16:24:48.015Z,42.65
2023-12-17T16:30:09.962Z,43.53
2023-12-17T16:35:31.969Z,38.22
2023-12-17T16:40:53.867Z,35.92
2023-12-17T16:46:15.828Z,43.78
2023-12-17T16:51:37.757Z,41.30
2023-12-17T16:56:59.694Z,47.05
2023-12-17T17:02:21.900Z,47.55
2023-12-17T17:07:43.860Z,44.25
2023-12-17T17:13:05.836Z,53.75
2023-12-17T17:18:27.862Z,49.25
2023-12-17T17:23:49.851Z,43.00
2023-12-17T17:29:11.807Z,48.72
2023-12-17T17:34:33.764Z,48.05
2023-12-17T17:39:57.061Z,65.28
2023-12-17T17:45:20.242Z,65.05
2023-12-17T17:50:42.170Z,62.65
2023-12-17T17:56:04.064Z,72.50
2023-12-17T18:01:26.068Z,83.22
2023-12-17T18:06:48.124Z,55.42
2023-12-17T18:12:10.056Z,47.53
2023-12-17T18:17:31.972Z,40.33
2023-12-17T18:22:53.950Z,41.72
2023-12-17T18:28:25.802Z,38.67
2023-12-17T18:33:47.884Z,43.08
2023-12-17T18:39:10.071Z,36.20
2023-12-17T18:44:32.032Z,41.40
2023-12-17T18:49:53.992Z,50.55
2023-12-17T18:55:15.862Z,41.70
2023-12-17T19:00:38.033Z,45.15
2023-12-17T19:05:59.991Z,44.95
2023-12-17T19:11:21.929Z,49.17
2023-12-17T19:16:43.883Z,60.35
2023-12-17T19:22:05.830Z,50.58
2023-12-17T19:27:27.762Z,49.78
2023-12-17T19:32:50.079Z,41.53
2023-12-17T19:38:12.452Z,37.72
2023-12-17T19:43:37.159Z,37.13
2023-12-17T19:49:01.217Z,31.88
2023-12-17T19:54:23.205Z,34.92
2023-12-17T19:59:45.142Z,27.35
2023-12-17T20:05:07.096Z,28.13
2023-12-17T20:10:30.209Z,27.45
2023-12-17T20:15:54.732Z,26.92
2023-12-17T20:21:16.693Z,28.83
2023-12-17T20:26:38.649Z,31.30
2023-12-17T20:32:00.572Z,29.83
2023-12-17T20:37:22.495Z,25.30
2023-12-17T20:42:44.734Z,31.52
2023-12-17T20:48:11.583Z,27.17
2023-12-17T20:53:33.566Z,26.92
2023-12-17T20:58:55.494Z,19.05
2023-12-17T21:04:17.526Z,22.00
2023-12-17T21:09:39.636Z,22.33
2023-12-17T21:15:01.694Z,31.08
2023-12-17T21:20:23.678Z,28.08
2023-12-17T21:25:45.547Z,25.50
2023-12-17T21:31:07.496Z,27.90
2023-12-17T21:36:29.747Z,27.80
2023-12-17T21:41:51.892Z,42.03
2023-12-17T21:47:13.826Z,31.13
2023-12-17T21:52:36.176Z,25.65
2023-12-17T21:57:58.119Z,21.83
2023-12-17T22:03:20.224Z,22.48
2023-12-17T22:08:43.639Z,18.75
2023-12-17T22:14:05.606Z,20.15
2023-12-17T22:19:27.639Z,20.23
2023-12-17T22:24:49.598Z,20.70
2023-12-17T22:30:11.616Z,16.92
2023-12-17T22:35:33.580Z,23.05
2023-12-17T22:40:55.496Z,17.48
2023-12-17T22:46:17.598Z,18.17
2023-12-17T22:51:39.680Z,18.77
2023-12-17T22:57:01.665Z,17.17
2023-12-17T23:02:23.600Z,18.20
2023-12-17T23:07:45.511Z,15.70
2023-12-17T23:13:07.428Z,12.52
2023-12-17T23:18:29.636Z,19.67
2023-12-17T23:23:51.976Z,40.45
2023-12-17T23:29:13.861Z,22.45
2023-12-17T23:34:35.838Z,20.63
2023-12-17T23:39:57.823Z,16.52
2023-12-17T23:45:19.781Z,25.30
2023-12-17T23:50:41.716Z,24.00
2023-12-17T23:56:06.152Z,18.67
